Kilsyth, United Kingdom
Current Conditions -  °F | °C
As of 11:20 AM on Tuesday 21 Oct 2014 (Local Time) from EGPF Reporting Station
Light Rain Light Rain  
Wind Chill: 41°   Ceiling: 2900
Heat Index: 48°   Visibility: 6mi
Dew Point: 39°   Wind: 23mph
Humidity: 71%   Direction: 300°WNW
Pressure: 29.44"   Gusts: 35mph
Location:  55.98°N, 4.06°W
Report Text: EGPF 211020Z AUTO 30020G30KT 9999 -RA BKN029/// //////TCU 09/04 Q0997
Loading
Personal Weather Stations






























Interactive Weather Map
Tropical Storm Tracking
New forecast layout! Learn more

10-Day Weather Forecast

Advertisements
Track Severe Weather on mobile